createdAt,value
2023-04-30T00:00:52.329Z,375.75
2023-04-30T00:02:32.903Z,375.733
2023-04-30T00:04:13.218Z,375.783
2023-04-30T00:05:53.538Z,375.783
2023-04-30T00:07:33.930Z,375.733
2023-04-30T00:09:14.298Z,375.783
2023-04-30T00:10:54.730Z,375.75
2023-04-30T00:12:35.107Z,375.75
2023-04-30T00:14:15.606Z,375.75
2023-04-30T00:15:56.044Z,375.75
2023-04-30T00:17:36.468Z,375.75
2023-04-30T00:19:16.834Z,375.783
2023-04-30T00:20:57.221Z,375.75
2023-04-30T00:22:37.675Z,375.733
2023-04-30T00:24:18.049Z,375.733
2023-04-30T00:25:58.487Z,375.733
2023-04-30T00:27:40.895Z,375.7
2023-04-30T00:29:19.309Z,375.733
2023-04-30T00:30:59.761Z,375.733
2023-04-30T00:32:40.239Z,375.733
2023-04-30T00:34:20.581Z,375.75
2023-04-30T00:36:01.009Z,375.7
2023-04-30T00:37:41.451Z,375.733
2023-04-30T00:39:21.913Z,375.733
2023-04-30T00:41:02.396Z,375.733
2023-04-30T00:42:42.839Z,375.733
2023-04-30T00:44:23.279Z,375.7
2023-04-30T00:46:03.721Z,375.733
2023-04-30T00:47:44.086Z,375.7
2023-04-30T00:49:24.461Z,375.7
2023-04-30T00:51:04.895Z,375.683
2023-04-30T00:52:45.227Z,375.683
2023-04-30T00:54:25.699Z,375.7
2023-04-30T00:56:06.160Z,375.683
2023-04-30T00:57:46.558Z,375.683
2023-04-30T00:59:26.910Z,375.683
2023-04-30T01:01:07.380Z,375.7
2023-04-30T01:02:47.888Z,375.683
2023-04-30T01:04:28.196Z,375.7
2023-04-30T01:06:08.586Z,375.7
2023-04-30T01:07:48.955Z,375.683
2023-04-30T01:09:29.308Z,375.733
2023-04-30T01:11:09.788Z,375.7
2023-04-30T01:12:50.173Z,375.633
2023-04-30T01:14:30.685Z,375.633
2023-04-30T01:16:11.021Z,375.633
2023-04-30T01:17:51.499Z,375.7
2023-04-30T01:19:31.796Z,375.633
2023-04-30T01:21:12.209Z,375.633
2023-04-30T01:22:52.579Z,375.633
2023-04-30T01:24:32.955Z,375.617
2023-04-30T01:26:13.359Z,375.617
2023-04-30T01:27:53.820Z,375.633
2023-04-30T01:29:34.202Z,375.617
2023-04-30T01:31:14.624Z,375.633
2023-04-30T01:32:55.146Z,375.617
2023-04-30T01:34:35.546Z,375.633
2023-04-30T01:36:15.957Z,375.633
2023-04-30T01:37:56.364Z,375.633
2023-04-30T01:39:36.778Z,375.633
2023-04-30T01:41:17.237Z,375.633
2023-04-30T01:42:57.688Z,375.633
2023-04-30T01:44:38.110Z,375.617
2023-04-30T01:46:18.607Z,375.617
2023-04-30T01:47:59.040Z,375.583
2023-04-30T01:49:39.384Z,375.583
2023-04-30T01:51:19.771Z,375.583
2023-04-30T01:53:00.214Z,375.583
2023-04-30T01:54:40.562Z,375.583
2023-04-30T01:56:20.897Z,375.617
2023-04-30T01:58:01.286Z,375.583
2023-04-30T01:59:41.603Z,375.583
2023-04-30T02:01:22.167Z,375.617
2023-04-30T02:03:02.730Z,375.583
2023-04-30T02:04:42.986Z,375.617
2023-04-30T02:06:38.430Z,375.583
2023-04-30T02:08:03.786Z,375.583
2023-04-30T02:09:44.170Z,375.583
2023-04-30T02:11:24.568Z,375.617
2023-04-30T02:13:05.089Z,375.583
2023-04-30T02:14:45.505Z,375.583
2023-04-30T02:16:25.828Z,375.567
2023-04-30T02:18:06.320Z,375.617
2023-04-30T02:19:46.719Z,375.583
2023-04-30T02:21:27.139Z,375.55
2023-04-30T02:23:07.564Z,375.583
2023-04-30T02:24:47.975Z,375.567
2023-04-30T02:26:28.372Z,375.567
2023-04-30T02:28:08.893Z,375.583
2023-04-30T02:29:49.498Z,375.583
2023-04-30T02:31:29.830Z,375.567
2023-04-30T02:33:10.304Z,375.567
2023-04-30T02:34:50.714Z,375.567
2023-04-30T02:36:31.107Z,375.567
2023-04-30T02:38:11.504Z,375.567
2023-04-30T02:39:52.130Z,375.567
2023-04-30T02:41:32.262Z,375.567
2023-04-30T02:43:12.662Z,375.567
2023-04-30T02:44:53.083Z,375.567
2023-04-30T02:46:33.527Z,375.567
2023-04-30T02:48:13.895Z,375.55
2023-04-30T02:49:54.565Z,375.55
2023-04-30T02:51:34.802Z,375.517
2023-04-30T02:53:15.182Z,375.517
2023-04-30T02:54:55.638Z,375.55
2023-04-30T02:56:36.150Z,375.517
2023-04-30T02:58:16.515Z,375.55
2023-04-30T02:59:57.288Z,375.517
2023-04-30T03:01:37.417Z,375.55
2023-04-30T03:03:17.925Z,375.55
2023-04-30T03:04:58.192Z,375.55
2023-04-30T03:06:38.655Z,375.517
2023-04-30T03:08:19.053Z,375.517
2023-04-30T03:09:59.498Z,375.517
2023-04-30T03:11:40.011Z,375.517
2023-04-30T03:13:20.465Z,375.517
2023-04-30T03:15:00.879Z,375.517
2023-04-30T03:16:41.474Z,375.517
2023-04-30T03:18:21.704Z,375.5
2023-04-30T03:20:02.124Z,375.517
2023-04-30T03:21:42.509Z,375.5
2023-04-30T03:23:22.953Z,375.517
2023-04-30T03:25:03.376Z,375.5
2023-04-30T03:26:43.788Z,375.5
2023-04-30T03:28:24.186Z,375.5
2023-04-30T03:30:04.514Z,375.5
2023-04-30T03:31:44.890Z,375.5
2023-04-30T03:33:25.261Z,375.517
2023-04-30T03:35:05.652Z,375.517
2023-04-30T03:36:46.050Z,375.5
2023-04-30T03:38:26.501Z,375.5
2023-04-30T03:40:06.877Z,375.467
2023-04-30T03:41:47.362Z,375.45
2023-04-30T03:43:27.763Z,375.467
2023-04-30T03:45:08.254Z,375.467
2023-04-30T03:46:48.651Z,375.467
2023-04-30T03:48:29.140Z,375.45
2023-04-30T03:50:09.475Z,375.467
2023-04-30T03:51:49.953Z,375.467
2023-04-30T03:53:30.406Z,375.467
2023-04-30T03:55:10.846Z,375.467
2023-04-30T03:56:51.302Z,375.5
2023-04-30T03:58:31.713Z,375.467
2023-04-30T04:00:12.160Z,375.467
2023-04-30T04:01:52.604Z,375.45
2023-04-30T04:03:32.978Z,375.467
2023-04-30T04:05:13.376Z,375.4
2023-04-30T04:06:53.782Z,375.45
2023-04-30T04:08:34.203Z,375.417
2023-04-30T04:10:14.586Z,375.4
2023-04-30T04:11:54.925Z,375.467
2023-04-30T04:13:35.405Z,375.417
2023-04-30T04:15:15.879Z,375.4
2023-04-30T04:16:56.231Z,375.4
2023-04-30T04:18:36.642Z,375.4
2023-04-30T04:20:17.100Z,375.4
2023-04-30T04:21:57.469Z,375.4
2023-04-30T04:23:37.913Z,375.4
2023-04-30T04:25:18.526Z,375.4
2023-04-30T04:26:58.678Z,375.383
2023-04-30T04:28:39.087Z,375.4
2023-04-30T04:30:19.580Z,375.4
2023-04-30T04:32:00.101Z,375.4
2023-04-30T04:33:40.482Z,375.4
2023-04-30T04:35:20.918Z,375.35
2023-04-30T04:37:01.337Z,375.383
2023-04-30T04:38:41.760Z,375.4
2023-04-30T04:40:22.234Z,375.35
2023-04-30T04:42:02.626Z,375.35
2023-04-30T04:43:43.017Z,375.383
2023-04-30T04:45:23.473Z,375.383
2023-04-30T04:47:03.908Z,375.383
2023-04-30T04:48:44.271Z,375.35
2023-04-30T04:50:24.701Z,375.383
2023-04-30T04:52:05.147Z,375.35
2023-04-30T04:53:45.495Z,375.35
2023-04-30T04:55:25.932Z,375.383
2023-04-30T04:57:06.342Z,375.383
2023-04-30T04:58:46.726Z,375.35
2023-04-30T05:00:27.116Z,375.333
2023-04-30T05:02:07.573Z,375.333
2023-04-30T05:03:47.926Z,375.333
2023-04-30T05:05:28.149Z,375.35
2023-04-30T05:07:08.403Z,375.333
2023-04-30T05:08:48.780Z,375.333
2023-04-30T05:10:29.133Z,375.333
2023-04-30T05:12:09.500Z,375.333
2023-04-30T05:13:49.844Z,375.333
2023-04-30T05:15:30.190Z,375.333
2023-04-30T05:17:10.600Z,375.333
2023-04-30T05:18:51.095Z,375.333
2023-04-30T05:20:31.505Z,375.35
2023-04-30T05:22:11.942Z,375.333
2023-04-30T05:23:52.347Z,375.35
2023-04-30T05:25:32.782Z,375.333
2023-04-30T05:27:13.170Z,375.333
2023-04-30T05:28:53.600Z,375.35
2023-04-30T05:30:34.044Z,375.35
2023-04-30T05:32:14.565Z,375.333
2023-04-30T05:33:54.967Z,375.35
2023-04-30T05:35:35.360Z,375.333
2023-04-30T05:37:15.768Z,375.283
2023-04-30T05:38:56.159Z,375.3
2023-04-30T05:40:36.559Z,375.3
2023-04-30T05:42:17.028Z,375.3
2023-04-30T05:43:57.517Z,375.3
2023-04-30T05:45:37.822Z,375.3
2023-04-30T05:47:18.297Z,375.283
2023-04-30T05:48:58.743Z,375.3
2023-04-30T05:50:39.304Z,375.3
2023-04-30T05:52:19.586Z,375.3
2023-04-30T05:54:00.122Z,375.283
2023-04-30T05:55:40.534Z,375.3
2023-04-30T05:57:20.903Z,375.333
2023-04-30T05:59:01.245Z,375.3
2023-04-30T06:00:41.646Z,375.283
2023-04-30T06:02:22.153Z,375.283
2023-04-30T06:04:02.465Z,375.283
2023-04-30T06:05:43.043Z,375.283
2023-04-30T06:07:23.305Z,375.25
2023-04-30T06:09:03.787Z,375.25
2023-04-30T06:10:44.206Z,375.25
2023-04-30T06:12:24.603Z,375.25
2023-04-30T06:14:04.998Z,375.25
2023-04-30T06:15:45.356Z,375.25
2023-04-30T06:17:25.817Z,375.25
2023-04-30T06:19:06.267Z,375.283
2023-04-30T06:20:46.705Z,375.283
2023-04-30T06:22:27.106Z,375.283
2023-04-30T06:24:07.569Z,375.25
2023-04-30T06:25:48.052Z,375.25
2023-04-30T06:27:28.526Z,375.283
2023-04-30T06:29:08.968Z,375.25
2023-04-30T06:30:49.316Z,375.25
2023-04-30T06:32:29.792Z,375.283
2023-04-30T06:34:10.140Z,375.25
2023-04-30T06:35:50.510Z,375.233
2023-04-30T06:37:32.406Z,375.233
2023-04-30T06:39:11.392Z,375.233
2023-04-30T06:40:51.831Z,375.233
2023-04-30T06:42:32.227Z,375.233
2023-04-30T06:44:12.733Z,375.217
2023-04-30T06:45:53.121Z,375.25
2023-04-30T06:47:33.504Z,375.233
2023-04-30T06:49:13.863Z,375.233
2023-04-30T06:50:54.225Z,375.25
2023-04-30T06:52:34.615Z,375.233
2023-04-30T06:54:14.977Z,375.233
2023-04-30T06:55:55.352Z,375.233
2023-04-30T06:57:35.754Z,375.217
2023-04-30T06:59:16.155Z,375.217
2023-04-30T07:00:56.584Z,375.167
2023-04-30T07:02:37.064Z,375.233
2023-04-30T07:04:17.385Z,375.167
2023-04-30T07:05:57.847Z,375.183
2023-04-30T07:07:38.218Z,375.183
2023-04-30T07:09:18.635Z,375.183
2023-04-30T07:10:58.992Z,375.167
2023-04-30T07:12:39.474Z,375.167
2023-04-30T07:14:19.880Z,375.183
2023-04-30T07:16:00.279Z,375.183
2023-04-30T07:17:40.657Z,375.167
2023-04-30T07:19:21.137Z,375.167
2023-04-30T07:21:01.595Z,375.167
2023-04-30T07:22:42.117Z,375.183
2023-04-30T07:24:22.619Z,375.167
2023-04-30T07:26:02.945Z,375.167
2023-04-30T07:27:43.307Z,375.167
2023-04-30T07:29:23.670Z,375.183
2023-04-30T07:31:04.117Z,375.167
2023-04-30T07:32:44.484Z,375.167
2023-04-30T07:34:24.803Z,375.133
2023-04-30T07:36:05.253Z,375.167
2023-04-30T07:37:45.633Z,375.133
2023-04-30T07:39:26.053Z,375.167
2023-04-30T07:41:06.456Z,375.117
2023-04-30T07:42:46.823Z,375.133
2023-04-30T07:44:27.270Z,375.133
2023-04-30T07:46:07.685Z,375.133
2023-04-30T07:47:48.090Z,375.133
2023-04-30T07:49:28.481Z,375.133
2023-04-30T07:51:08.931Z,375.133
2023-04-30T07:52:49.344Z,375.133
2023-04-30T07:54:29.796Z,375.133
2023-04-30T07:56:10.169Z,375.133
2023-04-30T07:57:50.610Z,375.133
2023-04-30T07:59:31.062Z,375.133
2023-04-30T08:01:11.527Z,375.117
2023-04-30T08:02:52.027Z,375.133
2023-04-30T08:04:32.482Z,375.133
2023-04-30T08:06:12.636Z,375.133
2023-04-30T08:07:53.021Z,375.133
2023-04-30T08:09:33.395Z,375.117
2023-04-30T08:11:13.805Z,375.133
2023-04-30T08:12:54.291Z,375.117
2023-04-30T08:14:34.621Z,375.117
2023-04-30T08:16:15.117Z,375.083
2023-04-30T08:17:55.533Z,375.083
2023-04-30T08:19:35.859Z,375.117
2023-04-30T08:21:16.343Z,375.083
2023-04-30T08:22:56.707Z,375.117
2023-04-30T08:24:37.169Z,375.117
2023-04-30T08:26:17.603Z,375.117
2023-04-30T08:27:58.016Z,375.117
2023-04-30T08:29:38.519Z,375.083
2023-04-30T08:31:18.948Z,375.117
2023-04-30T08:32:59.239Z,375.083
2023-04-30T08:34:39.574Z,375.083
2023-04-30T08:36:19.917Z,375.117
2023-04-30T08:38:00.392Z,375.083
2023-04-30T08:39:40.793Z,375.083
2023-04-30T08:41:21.235Z,375.117
2023-04-30T08:43:01.619Z,375.067
2023-04-30T08:44:41.986Z,375.083
2023-04-30T08:46:22.461Z,375.067
2023-04-30T08:48:02.915Z,375.067
2023-04-30T08:49:43.283Z,375.067
2023-04-30T08:51:23.707Z,375.067
2023-04-30T08:53:04.193Z,375.067
2023-04-30T08:54:44.593Z,375.067
2023-04-30T08:56:25.518Z,375.067
2023-04-30T08:58:05.448Z,375.067
2023-04-30T08:59:45.882Z,375.067
2023-04-30T09:01:26.375Z,375.083
2023-04-30T09:03:06.802Z,375.067
2023-04-30T09:04:47.065Z,375.067
2023-04-30T09:06:27.614Z,375.083
2023-04-30T09:08:07.919Z,375.067
2023-04-30T09:09:48.310Z,375.067
2023-04-30T09:11:28.781Z,375.083
2023-04-30T09:13:09.280Z,375.05
2023-04-30T09:14:49.567Z,375.067
2023-04-30T09:16:30.193Z,375.067
2023-04-30T09:18:10.500Z,375.083
2023-04-30T09:19:50.841Z,375.05
2023-04-30T09:21:31.210Z,375.067
2023-04-30T09:23:11.619Z,375.05
2023-04-30T09:24:52.062Z,375.05
2023-04-30T09:26:32.488Z,375.05
2023-04-30T09:28:12.900Z,375.067
2023-04-30T09:29:53.459Z,375.05
2023-04-30T09:31:33.911Z,375.05
2023-04-30T09:33:14.363Z,375.05
2023-04-30T09:34:54.627Z,375.05
2023-04-30T09:36:35.047Z,375.05
2023-04-30T09:38:15.379Z,375.05
2023-04-30T09:39:56.122Z,375.05
2023-04-30T09:41:36.194Z,375.05
2023-04-30T09:43:16.646Z,375.067
2023-04-30T09:44:57.066Z,375.017
2023-04-30T09:46:37.617Z,375.05
2023-04-30T09:48:18.191Z,375.05
2023-04-30T09:49:58.390Z,375.05
2023-04-30T09:51:38.710Z,375.05
2023-04-30T09:53:19.158Z,375.05
2023-04-30T09:54:59.504Z,375.05
2023-04-30T09:56:39.862Z,375.05
2023-04-30T09:58:20.246Z,375.067
2023-04-30T10:00:00.656Z,375.017
2023-04-30T10:01:41.418Z,374.967
2023-04-30T10:03:21.488Z,374.967
2023-04-30T10:05:01.866Z,374.967
2023-04-30T10:06:42.335Z,375.05
2023-04-30T10:08:22.734Z,375.067
2023-04-30T10:10:03.196Z,375.05
2023-04-30T10:11:43.601Z,375
2023-04-30T10:13:24.154Z,374.967
2023-04-30T10:15:04.505Z,375.017
2023-04-30T10:16:45.060Z,374.967
2023-04-30T10:18:25.365Z,374.967
2023-04-30T10:20:05.776Z,374.967
2023-04-30T10:21:46.254Z,374.95
2023-04-30T10:23:26.681Z,375
2023-04-30T10:25:07.056Z,375
2023-04-30T10:26:47.455Z,374.967
2023-04-30T10:28:27.884Z,374.967
2023-04-30T10:30:08.268Z,375
2023-04-30T10:31:48.732Z,375
2023-04-30T10:33:29.078Z,374.967
2023-04-30T10:35:09.472Z,375
2023-04-30T10:36:49.888Z,374.967
2023-04-30T10:38:30.291Z,374.967
2023-04-30T10:40:10.643Z,374.967
2023-04-30T10:41:51.066Z,374.967
2023-04-30T10:43:31.476Z,374.967
2023-04-30T10:45:11.874Z,375
2023-04-30T10:46:52.326Z,374.967
2023-04-30T10:48:32.683Z,374.967
2023-04-30T10:50:13.184Z,374.967
2023-04-30T10:51:53.578Z,375
2023-04-30T10:53:33.982Z,374.967
2023-04-30T10:55:14.418Z,374.967
2023-04-30T10:56:54.782Z,375
2023-04-30T10:58:35.169Z,375
2023-04-30T11:00:15.613Z,374.967
2023-04-30T11:01:56.095Z,375
2023-04-30T11:03:36.437Z,374.95
2023-04-30T11:05:17.082Z,374.967
2023-04-30T11:06:57.223Z,374.95
2023-04-30T11:08:37.615Z,374.967
2023-04-30T11:10:17.976Z,374.967
2023-04-30T11:11:58.356Z,374.95
2023-04-30T11:13:38.761Z,374.967
2023-04-30T11:15:19.108Z,374.95
2023-04-30T11:16:59.626Z,374.95
2023-04-30T11:18:40.018Z,374.95
2023-04-30T11:20:20.349Z,374.95
2023-04-30T11:22:00.744Z,374.95
2023-04-30T11:23:42.211Z,374.95
2023-04-30T11:25:21.641Z,374.95
2023-04-30T11:27:02.060Z,374.95
2023-04-30T11:28:42.462Z,374.95
2023-04-30T11:30:22.876Z,374.95
2023-04-30T11:32:03.356Z,374.95
2023-04-30T11:33:43.722Z,374.95
2023-04-30T11:35:24.077Z,374.95
2023-04-30T11:37:04.481Z,374.95
2023-04-30T11:38:44.911Z,374.95
2023-04-30T11:40:25.346Z,374.95
2023-04-30T11:42:05.711Z,374.917
2023-04-30T11:43:46.105Z,374.917
2023-04-30T11:45:26.464Z,374.917
2023-04-30T11:47:07.075Z,374.9
2023-04-30T11:48:47.399Z,374.95
2023-04-30T11:50:27.801Z,374.917
2023-04-30T11:52:08.179Z,374.95
2023-04-30T11:53:48.578Z,374.917
2023-04-30T11:55:29.029Z,374.9
2023-04-30T11:57:09.418Z,374.917
2023-04-30T11:58:49.920Z,374.95
2023-04-30T12:00:30.276Z,374.9
2023-04-30T12:02:13.508Z,374.917
2023-04-30T12:03:51.231Z,374.917
2023-04-30T12:05:31.530Z,374.917
2023-04-30T12:07:12.027Z,374.917
2023-04-30T12:08:52.479Z,374.917
2023-04-30T12:10:32.888Z,374.917
2023-04-30T12:12:13.316Z,374.9
2023-04-30T12:13:53.789Z,374.95
2023-04-30T12:15:34.254Z,374.9
2023-04-30T12:17:14.792Z,374.917
2023-04-30T12:18:55.106Z,374.917
2023-04-30T12:20:35.585Z,374.917
2023-04-30T12:22:15.935Z,374.917
2023-04-30T12:23:56.280Z,374.9
2023-04-30T12:25:36.783Z,374.917
2023-04-30T12:27:17.184Z,374.9
2023-04-30T12:28:57.622Z,374.917
2023-04-30T12:30:38.066Z,374.9
2023-04-30T12:32:18.575Z,374.9
2023-04-30T12:33:58.865Z,374.9
2023-04-30T12:35:39.237Z,374.85
2023-04-30T12:37:19.576Z,374.9
2023-04-30T12:39:00.051Z,374.9
2023-04-30T12:40:40.448Z,374.883
2023-04-30T12:42:20.858Z,374.883
2023-04-30T12:44:01.300Z,374.883
2023-04-30T12:45:41.843Z,374.883
2023-04-30T12:47:22.183Z,374.9
2023-04-30T12:49:02.542Z,374.883
2023-04-30T12:50:42.950Z,374.9
2023-04-30T12:52:23.416Z,374.883
2023-04-30T12:54:03.803Z,374.9
2023-04-30T12:55:47.291Z,374.883
2023-04-30T12:57:24.684Z,374.9
2023-04-30T12:59:05.129Z,374.9
2023-04-30T13:00:45.570Z,374.9
2023-04-30T13:02:26.092Z,374.9
2023-04-30T13:04:06.526Z,374.883
2023-04-30T13:05:46.829Z,374.9
2023-04-30T13:07:27.257Z,374.9
2023-04-30T13:09:07.691Z,374.883
2023-04-30T13:10:48.145Z,374.9
2023-04-30T13:12:28.550Z,374.917
2023-04-30T13:14:08.908Z,374.883
2023-04-30T13:15:49.315Z,374.9
2023-04-30T13:17:29.762Z,374.883
2023-04-30T13:19:10.179Z,374.85
2023-04-30T13:20:50.573Z,374.85
2023-04-30T13:22:30.987Z,374.883
2023-04-30T13:24:11.401Z,374.85
2023-04-30T13:25:51.745Z,374.85
2023-04-30T13:27:32.252Z,374.85
2023-04-30T13:29:12.732Z,374.85
2023-04-30T13:30:53.193Z,374.883
2023-04-30T13:32:33.551Z,374.85
2023-04-30T13:34:13.862Z,374.883
2023-04-30T13:35:54.225Z,374.85
2023-04-30T13:37:34.625Z,374.85
2023-04-30T13:39:15.007Z,374.883
2023-04-30T13:40:55.425Z,374.85
2023-04-30T13:42:35.842Z,374.85
2023-04-30T13:44:16.277Z,374.85
2023-04-30T13:45:56.701Z,374.85
2023-04-30T13:47:37.113Z,374.883
2023-04-30T13:49:17.457Z,374.85
2023-04-30T13:50:57.829Z,374.85
2023-04-30T13:52:38.295Z,374.85
2023-04-30T13:54:18.729Z,374.85
2023-04-30T13:55:59.123Z,374.85
2023-04-30T13:57:39.588Z,374.85
2023-04-30T13:59:20.031Z,374.85
2023-04-30T14:01:00.553Z,374.883
2023-04-30T14:02:41.055Z,374.883
2023-04-30T14:04:21.393Z,374.883
2023-04-30T14:06:01.740Z,374.833
2023-04-30T14:07:42.090Z,374.833
2023-04-30T14:09:22.526Z,374.833
2023-04-30T14:11:02.933Z,374.883
2023-04-30T14:12:43.363Z,374.8
2023-04-30T14:14:23.725Z,374.833
2023-04-30T14:16:04.165Z,374.833
2023-04-30T14:17:44.531Z,374.833
2023-04-30T14:19:24.933Z,374.833
2023-04-30T14:21:05.272Z,374.833
2023-04-30T14:22:45.712Z,374.833
2023-04-30T14:24:26.133Z,374.85
2023-04-30T14:26:06.478Z,374.833
2023-04-30T14:27:46.913Z,374.833
2023-04-30T14:29:27.320Z,374.8
2023-04-30T14:31:07.769Z,374.833
2023-04-30T14:32:48.255Z,374.833
2023-04-30T14:34:28.575Z,374.8
2023-04-30T14:36:09.002Z,374.85
2023-04-30T14:37:49.446Z,374.833
2023-04-30T14:39:29.885Z,374.833
2023-04-30T14:41:10.270Z,374.85
2023-04-30T14:42:50.795Z,374.75
2023-04-30T14:44:31.031Z,374.75
2023-04-30T14:46:11.547Z,374.75
2023-04-30T14:47:51.943Z,374.8
2023-04-30T14:49:32.281Z,374.75
2023-04-30T14:51:12.662Z,374.75
2023-04-30T14:52:53.094Z,374.75
2023-04-30T14:54:33.546Z,374.75
2023-04-30T14:56:14.002Z,374.75
2023-04-30T14:57:54.385Z,374.75
2023-04-30T14:59:34.828Z,374.75
2023-04-30T15:01:15.283Z,374.75
2023-04-30T15:02:55.726Z,374.75
2023-04-30T15:04:36.009Z,374.75
2023-04-30T15:06:16.442Z,374.783
2023-04-30T15:07:56.893Z,374.783
2023-04-30T15:09:37.313Z,374.75
2023-04-30T15:11:17.709Z,374.75
2023-04-30T15:12:58.175Z,374.783
2023-04-30T15:14:38.582Z,374.75
2023-04-30T15:16:19.129Z,374.75
2023-04-30T15:17:59.468Z,374.733
2023-04-30T15:19:39.895Z,374.75
2023-04-30T15:21:20.294Z,374.783
2023-04-30T15:23:00.740Z,374.75
2023-04-30T15:24:41.138Z,374.75
2023-04-30T15:26:21.452Z,374.733
2023-04-30T15:28:01.924Z,374.733
2023-04-30T15:29:42.365Z,374.733
2023-04-30T15:31:22.799Z,374.717
2023-04-30T15:33:03.319Z,374.717
2023-04-30T15:34:43.698Z,374.733
2023-04-30T15:36:24.161Z,374.75
2023-04-30T15:38:04.596Z,374.717
2023-04-30T15:39:45.050Z,374.733
2023-04-30T15:41:25.397Z,374.733
2023-04-30T15:43:05.785Z,374.75
2023-04-30T15:44:46.196Z,374.733
2023-04-30T15:46:26.574Z,374.733
2023-04-30T15:48:07.018Z,374.733
2023-04-30T15:49:47.377Z,374.717
2023-04-30T15:51:27.738Z,374.733
2023-04-30T15:53:08.171Z,374.717
2023-04-30T15:54:48.582Z,374.733
2023-04-30T15:56:28.946Z,374.683
2023-04-30T15:58:09.331Z,374.683
2023-04-30T15:59:49.761Z,374.717
2023-04-30T16:01:30.224Z,374.717
2023-04-30T16:03:10.816Z,374.683
2023-04-30T16:04:51.094Z,374.683
2023-04-30T16:06:31.553Z,374.683
2023-04-30T16:08:11.849Z,374.683
2023-04-30T16:09:52.238Z,374.717
2023-04-30T16:11:32.669Z,374.717
2023-04-30T16:13:13.085Z,374.717
2023-04-30T16:14:53.558Z,374.683
2023-04-30T16:16:34.091Z,374.717
2023-04-30T16:18:14.457Z,374.717
2023-04-30T16:19:55.209Z,374.683
2023-04-30T16:21:37.130Z,374.717
2023-04-30T16:23:15.597Z,374.683
2023-04-30T16:24:55.978Z,374.717
2023-04-30T16:26:36.334Z,374.717
2023-04-30T16:28:16.751Z,374.717
2023-04-30T16:29:57.454Z,374.683
2023-04-30T16:31:37.723Z,374.667
2023-04-30T16:33:18.037Z,374.683
2023-04-30T16:34:58.418Z,374.717
2023-04-30T16:36:38.832Z,374.717
2023-04-30T16:38:19.344Z,374.683
2023-04-30T16:39:59.762Z,374.717
2023-04-30T16:41:40.212Z,374.667
2023-04-30T16:43:20.665Z,374.667
2023-04-30T16:45:00.990Z,374.667
2023-04-30T16:46:41.368Z,374.683
2023-04-30T16:48:21.832Z,374.683
2023-04-30T16:50:02.257Z,374.633
2023-04-30T16:51:45.780Z,374.683
2023-04-30T16:53:23.156Z,374.683
2023-04-30T16:55:03.472Z,374.667
2023-04-30T16:56:43.916Z,374.683
2023-04-30T16:58:24.367Z,374.667
2023-04-30T17:00:04.807Z,374.667
2023-04-30T17:01:45.179Z,374.683
2023-04-30T17:03:25.824Z,374.633
2023-04-30T17:05:06.103Z,374.683
2023-04-30T17:06:46.694Z,374.683
2023-04-30T17:08:26.923Z,374.667
2023-04-30T17:10:07.361Z,374.633
2023-04-30T17:11:47.710Z,374.667
2023-04-30T17:13:31.068Z,374.633
2023-04-30T17:15:08.425Z,374.633
2023-04-30T17:16:48.785Z,374.667
2023-04-30T17:18:29.238Z,374.633
2023-04-30T17:20:09.605Z,374.633
2023-04-30T17:21:50.065Z,374.633
2023-04-30T17:23:30.462Z,374.633
2023-04-30T17:25:10.857Z,374.633
2023-04-30T17:26:51.269Z,374.667
2023-04-30T17:28:31.618Z,374.617
2023-04-30T17:30:12.026Z,374.633
2023-04-30T17:31:52.563Z,374.633
2023-04-30T17:33:32.862Z,374.633
2023-04-30T17:35:13.285Z,374.633
2023-04-30T17:36:53.691Z,374.633
2023-04-30T17:38:34.142Z,374.633
2023-04-30T17:40:14.541Z,374.617
2023-04-30T17:41:54.946Z,374.633
2023-04-30T17:43:35.354Z,374.617
2023-04-30T17:45:18.863Z,374.567
2023-04-30T17:46:56.298Z,374.583
2023-04-30T17:48:36.644Z,374.617
2023-04-30T17:50:17.059Z,374.583
2023-04-30T17:51:57.454Z,374.617
2023-04-30T17:53:37.857Z,374.583
2023-04-30T17:55:18.249Z,374.583
2023-04-30T17:56:58.689Z,374.617
2023-04-30T17:58:40.079Z,374.583
2023-04-30T18:00:19.462Z,374.583
2023-04-30T18:01:59.851Z,374.583
2023-04-30T18:03:40.233Z,374.517
2023-04-30T18:05:23.624Z,374.617
2023-04-30T18:07:00.891Z,374.517
2023-04-30T18:08:41.222Z,374.583
2023-04-30T18:10:21.680Z,374.583
2023-04-30T18:12:02.077Z,374.517
2023-04-30T18:13:42.495Z,374.55
2023-04-30T18:15:22.935Z,374.55
2023-04-30T18:17:03.381Z,374.567
2023-04-30T18:18:43.798Z,374.55
2023-04-30T18:20:24.262Z,374.517
2023-04-30T18:22:04.638Z,374.55
2023-04-30T18:23:45.028Z,374.55
2023-04-30T18:25:25.497Z,374.517
2023-04-30T18:27:05.943Z,374.55
2023-04-30T18:28:46.404Z,374.517
2023-04-30T18:30:26.853Z,374.55
2023-04-30T18:32:07.287Z,374.517
2023-04-30T18:33:47.768Z,374.55
2023-04-30T18:35:28.188Z,374.55
2023-04-30T18:37:08.609Z,374.5
2023-04-30T18:38:48.988Z,374.517
2023-04-30T18:40:29.484Z,374.5
2023-04-30T18:42:09.854Z,374.5
2023-04-30T18:43:50.289Z,374.517
2023-04-30T18:45:30.796Z,374.5
2023-04-30T18:47:11.117Z,374.5
2023-04-30T18:48:51.511Z,374.517
2023-04-30T18:50:31.989Z,374.517
2023-04-30T18:52:12.412Z,374.5
2023-04-30T18:53:52.842Z,374.467
2023-04-30T18:55:33.250Z,374.5
2023-04-30T18:57:13.679Z,374.517
2023-04-30T18:58:54.148Z,374.5
2023-04-30T19:00:34.669Z,374.5
2023-04-30T19:02:15.103Z,374.5
2023-04-30T19:03:55.481Z,374.45
2023-04-30T19:05:35.781Z,374.5
2023-04-30T19:07:16.115Z,374.467
2023-04-30T19:08:56.520Z,374.467
2023-04-30T19:10:36.921Z,374.467
2023-04-30T19:12:17.248Z,374.45
2023-04-30T19:13:57.750Z,374.45
2023-04-30T19:15:38.197Z,374.45
2023-04-30T19:17:20.223Z,374.467
2023-04-30T19:18:59.026Z,374.467
2023-04-30T19:20:39.471Z,374.467
2023-04-30T19:22:19.904Z,374.467
2023-04-30T19:24:00.289Z,374.467
2023-04-30T19:25:40.730Z,374.467
2023-04-30T19:27:21.161Z,374.5
2023-04-30T19:29:01.609Z,374.433
2023-04-30T19:30:42.182Z,374.433
2023-04-30T19:32:22.779Z,374.45
2023-04-30T19:35:43.409Z,374.45
2023-04-30T19:37:23.805Z,374.45
2023-04-30T19:39:04.211Z,374.45
2023-04-30T19:40:44.747Z,374.433
2023-04-30T19:42:25.147Z,374.433
2023-04-30T19:44:05.487Z,374.45
2023-04-30T19:45:45.954Z,374.4
2023-04-30T19:47:26.351Z,374.4
2023-04-30T19:49:06.745Z,374.4
2023-04-30T19:50:47.126Z,374.4
2023-04-30T19:52:27.471Z,374.4
2023-04-30T19:54:07.855Z,374.433
2023-04-30T19:55:51.307Z,374.4
2023-04-30T19:57:28.683Z,374.4
2023-04-30T19:59:09.098Z,374.4
2023-04-30T20:00:49.617Z,374.4
2023-04-30T20:02:30.019Z,374.383
2023-04-30T20:04:10.492Z,374.4
2023-04-30T20:05:50.782Z,374.4
2023-04-30T20:07:31.205Z,374.4
2023-04-30T20:09:11.584Z,374.433
2023-04-30T20:10:51.830Z,374.383
2023-04-30T20:12:32.121Z,374.383
2023-04-30T20:14:12.665Z,374.4
2023-04-30T20:15:52.867Z,374.4
2023-04-30T20:17:33.287Z,374.433
2023-04-30T20:19:13.535Z,374.383
2023-04-30T20:20:53.935Z,374.383
2023-04-30T20:22:34.317Z,374.383
2023-04-30T20:24:14.722Z,374.4
2023-04-30T20:25:55.172Z,374.383
2023-04-30T20:27:35.540Z,374.4
2023-04-30T20:29:15.929Z,374.4
2023-04-30T20:30:56.434Z,374.383
2023-04-30T20:32:36.816Z,374.383
2023-04-30T20:34:17.230Z,374.35
2023-04-30T20:35:57.600Z,374.383
2023-04-30T20:37:37.993Z,374.383